Time;durP1;ratioP1;P1;durP2;ratioP2;P2;SDS_P1;SDS_P2;PMS_P1;PMS_P2;Temp;Humidity;BMP_temperature;BMP_pressure;BME280_temperature;BME280_humidity;BME280_pressure;Samples;Min_cycle;Max_cycle;Signal;HPM_P1;HPM_P2
2022/01/20 00:01:17;;;;;;;4.32;3.10;;;-3.90;99.90;;;;;;4391900;32;20073;-64
2022/01/20 00:03:43;;;;;;;5.50;3.35;;;-3.90;99.90;;;;;;4365314;32;20492;-63
2022/01/20 00:28:25;;;;;;;5.03;2.80;;;-4.00;99.90;;;;;;4391314;32;20077;-65
2022/01/20 00:31:05;;;;;;;5.62;3.20;;;-4.00;99.90;;;;;;4391492;32;20086;-64
2022/01/20 00:33:36;;;;;;;4.78;3.00;;;-4.10;99.90;;;;;;4378944;32;20574;-65
2022/01/20 00:38:39;;;;;;;5.40;3.28;;;-4.10;99.90;;;;;;4366109;32;20109;-64
2022/01/20 00:41:09;;;;;;;5.87;3.58;;;-4.00;99.90;;;;;;4391669;32;20070;-64
2022/01/20 00:43:35;;;;;;;5.20;3.45;;;-4.00;99.90;;;;;;4365779;32;20589;-66
2022/01/20 00:46:02;;;;;;;5.05;3.47;;;-4.00;99.90;;;;;;4364582;32;20591;-64
2022/01/20 00:48:28;;;;;;;5.00;3.05;;;-4.00;99.90;;;;;;4391100;32;20154;-65
2022/01/20 00:50:54;;;;;;;5.15;3.53;;;-4.20;99.90;;;;;;4364928;32;20095;-63
2022/01/20 00:53:21;;;;;;;5.07;3.37;;;-4.10;99.90;;;;;;4352829;32;20193;-65
2022/01/20 00:55:47;;;;;;;4.55;3.28;;;-4.20;99.90;;;;;;4365276;32;20066;-64
2022/01/20 00:58:14;;;;;;;5.10;3.20;;;-4.20;99.90;;;;;;4391365;32;20145;-64
2022/01/20 01:00:40;;;;;;;4.32;3.03;;;-4.20;99.90;;;;;;4377462;32;20100;-63
2022/01/20 01:03:07;;;;;;;4.68;3.20;;;-4.20;99.90;;;;;;4377593;32;20555;-65
2022/01/20 01:05:37;;;;;;;5.82;3.58;;;-4.20;99.90;;;;;;4376819;32;20102;-65
2022/01/20 01:08:06;;;;;;;5.25;3.25;;;-4.20;99.90;;;;;;4377636;32;20518;-65
2022/01/20 01:10:38;;;;;;;5.45;3.37;;;-4.30;99.90;;;;;;4391313;32;20590;-64
2022/01/20 01:13:12;;;;;;;4.90;3.30;;;-4.40;99.90;;;;;;4365373;32;20447;-65
2022/01/20 01:15:43;;;;;;;4.78;3.10;;;-4.30;99.90;;;;;;4365290;32;20433;-66
2022/01/20 01:23:38;;;;;;;5.07;3.25;;;-4.30;99.90;;;;;;4377844;32;20081;-65
2022/01/20 01:26:09;;;;;;;4.95;3.37;;;-4.30;99.90;;;;;;4391005;32;20090;-64
2022/01/20 01:28:37;;;;;;;4.93;3.12;;;-4.30;99.90;;;;;;4364641;32;20069;-64
2022/01/20 01:31:29;;;;;;;5.32;2.95;;;-4.40;99.90;;;;;;4352600;32;20093;-65
2022/01/20 01:34:04;;;;;;;5.30;3.28;;;-4.30;99.90;;;;;;4382637;32;20157;-64
2022/01/20 01:36:45;;;;;;;6.07;3.30;;;-4.40;99.90;;;;;;4368569;32;20069;-64
2022/01/20 01:39:12;;;;;;;4.97;3.40;;;-4.40;99.90;;;;;;4393891;32;20073;-64
2022/01/20 01:41:39;;;;;;;5.20;3.33;;;-4.40;99.90;;;;;;4379809;32;20081;-64
2022/01/20 01:44:07;;;;;;;6.22;3.65;;;-4.40;99.90;;;;;;4366801;32;20116;-65
2022/01/20 01:46:35;;;;;;;5.07;3.22;;;-4.50;99.90;;;;;;4379758;32;20498;-65
2022/01/20 01:49:02;;;;;;;4.62;3.03;;;-4.40;99.90;;;;;;4367010;32;20078;-64
2022/01/20 01:51:28;;;;;;;4.93;3.20;;;-4.40;99.90;;;;;;4379491;32;20081;-64
2022/01/20 01:53:55;;;;;;;6.03;4.12;;;-4.40;99.90;;;;;;4380500;32;20520;-65
2022/01/20 01:56:22;;;;;;;5.75;3.45;;;-4.40;99.90;;;;;;4393677;32;20082;-65
2022/01/20 01:58:48;;;;;;;5.07;3.22;;;-4.40;99.90;;;;;;4379840;32;20467;-65
2022/01/20 02:01:15;;;;;;;5.43;2.83;;;-4.50;99.90;;;;;;4393470;32;20089;-64
2022/01/20 02:03:45;;;;;;;5.47;3.33;;;-4.60;99.90;;;;;;4393525;32;20069;-65
2022/01/20 02:08:50;;;;;;;4.35;2.97;;;-4.50;99.90;;;;;;4367047;32;20086;-65
2022/01/20 02:19:32;;;;;;;4.82;3.03;;;-4.40;99.90;;;;;;4381656;32;20100;-64
2022/01/20 02:22:02;;;;;;;5.12;3.10;;;-4.50;99.90;;;;;;4379682;32;20078;-64
2022/01/20 02:24:32;;;;;;;5.90;3.35;;;-4.40;99.90;;;;;;4379558;32;20151;-64
2022/01/20 02:26:59;;;;;;;5.75;3.25;;;-4.50;99.90;;;;;;4379166;32;20528;-64
2022/01/20 02:29:25;;;;;;;4.62;3.03;;;-4.40;99.90;;;;;;4367205;32;20086;-63
2022/01/20 02:31:58;;;;;;;4.65;2.90;;;-4.50;99.90;;;;;;4392996;32;20070;-64
2022/01/20 02:34:28;;;;;;;4.57;3.03;;;-4.40;99.90;;;;;;4367639;32;20218;-64
2022/01/20 02:36:57;;;;;;;5.12;2.87;;;-4.50;99.90;;;;;;4368213;32;20115;-64
2022/01/20 02:44:54;;;;;;;5.80;3.30;;;-4.40;99.90;;;;;;4393016;32;20089;-64
2022/01/20 02:47:30;;;;;;;5.03;3.30;;;-4.30;99.90;;;;;;4393492;32;20070;-64
2022/01/20 02:49:57;;;;;;;5.03;3.42;;;-4.30;99.90;;;;;;4378937;32;20110;-65
2022/01/20 02:52:25;;;;;;;4.65;3.22;;;-4.30;99.90;;;;;;4366918;32;20074;-65
2022/01/20 02:54:54;;;;;;;5.68;3.22;;;-4.20;99.90;;;;;;4366378;32;20086;-65
2022/01/20 02:57:21;;;;;;;4.95;3.30;;;-4.30;99.90;;;;;;4379098;32;20085;-64
2022/01/20 02:59:47;;;;;;;6.22;3.28;;;-4.30;99.90;;;;;;4392733;32;20074;-63
2022/01/20 03:02:14;;;;;;;4.45;2.78;;;-4.30;99.90;;;;;;4378752;32;20064;-64
2022/01/20 03:04:40;;;;;;;6.45;3.55;;;-4.20;99.90;;;;;;4381054;32;20072;-64
2022/01/20 03:07:07;;;;;;;7.12;3.40;;;-4.30;99.90;;;;;;4402330;32;20069;-64
2022/01/20 03:09:34;;;;;;;5.30;3.40;;;-4.30;99.90;;;;;;4386160;32;20466;-64
2022/01/20 03:12:01;;;;;;;5.35;3.25;;;-4.30;99.90;;;;;;4375284;32;20112;-63
2022/01/20 03:14:27;;;;;;;4.72;2.95;;;-4.20;99.90;;;;;;4367417;32;20082;-64
2022/01/20 03:16:55;;;;;;;5.70;3.28;;;-4.30;99.90;;;;;;4392509;32;20088;-64
2022/01/20 03:19:21;;;;;;;6.35;3.05;;;-4.30;99.90;;;;;;4378632;32;20512;-64
2022/01/20 03:21:47;;;;;;;5.90;3.08;;;-4.30;99.90;;;;;;4366487;32;20086;-63
2022/01/20 03:24:14;;;;;;;4.40;3.10;;;-4.20;99.90;;;;;;4392393;32;20080;-64
2022/01/20 03:26:40;;;;;;;7.00;4.18;;;-4.30;99.90;;;;;;4378132;32;20085;-64
2022/01/20 03:29:07;;;;;;;5.20;3.30;;;-4.20;99.90;;;;;;4378866;32;20092;-64
2022/01/20 03:31:34;;;;;;;7.07;4.00;;;-4.10;99.90;;;;;;4378252;32;20086;-64
2022/01/20 03:34:01;;;;;;;5.18;3.20;;;-4.30;99.90;;;;;;4378227;32;20174;-64
2022/01/20 03:36:27;;;;;;;5.97;3.30;;;-4.20;99.90;;;;;;4365719;32;20085;-64
2022/01/20 03:38:54;;;;;;;5.57;3.17;;;-4.30;99.90;;;;;;4378316;32;20078;-63
2022/01/20 03:41:20;;;;;;;7.03;3.72;;;-4.40;99.90;;;;;;4392158;32;20089;-64
2022/01/20 03:43:47;;;;;;;5.80;3.00;;;-4.40;99.90;;;;;;4377864;32;20089;-64
2022/01/20 03:46:15;;;;;;;5.62;3.12;;;-4.40;99.90;;;;;;4377929;32;20081;-65
2022/01/20 03:49:02;;;;;;;5.25;3.05;;;-4.50;99.90;;;;;;4378369;32;20509;-63
2022/01/20 03:51:29;;;;;;;4.62;3.17;;;-4.40;99.90;;;;;;4380109;32;20518;-63
2022/01/20 03:53:56;;;;;;;5.22;3.10;;;-4.40;99.90;;;;;;4377580;32;20093;-64
2022/01/20 03:56:23;;;;;;;5.72;3.05;;;-4.40;99.90;;;;;;4377697;32;20089;-64
2022/01/20 03:58:51;;;;;;;6.15;3.03;;;-4.40;99.90;;;;;;4365689;32;20093;-64
2022/01/20 04:01:18;;;;;;;6.25;3.60;;;-4.50;99.90;;;;;;4353197;32;20102;-64
2022/01/20 04:03:45;;;;;;;5.30;3.20;;;-4.50;99.90;;;;;;4365305;32;20069;-64
2022/01/20 04:06:12;;;;;;;6.55;3.80;;;-4.50;99.90;;;;;;4377346;32;20085;-65
2022/01/20 04:08:41;;;;;;;6.55;3.20;;;-4.50;99.90;;;;;;4377948;32;20077;-65
2022/01/20 04:11:13;;;;;;;5.65;3.00;;;-4.50;99.90;;;;;;4378084;32;20101;-63
2022/01/20 04:13:40;;;;;;;6.87;3.58;;;-4.50;99.90;;;;;;4365348;32;20085;-65
2022/01/20 04:16:30;;;;;;;5.20;3.00;;;-4.40;99.90;;;;;;4352852;32;20101;-64
2022/01/20 04:18:56;;;;;;;6.05;3.05;;;-4.50;99.90;;;;;;4377410;32;20580;-64
2022/01/20 04:21:32;;;;;;;6.40;3.55;;;-4.40;99.90;;;;;;4377725;32;20164;-64
2022/01/20 04:24:00;;;;;;;4.50;2.65;;;-4.40;99.90;;;;;;4391494;32;20478;-64
2022/01/20 04:26:28;;;;;;;5.07;3.03;;;-4.50;99.90;;;;;;4365071;32;20081;-63
2022/01/20 04:28:56;;;;;;;4.50;2.85;;;-4.50;99.90;;;;;;4378466;32;20160;-65
2022/01/20 04:31:24;;;;;;;5.93;3.22;;;-4.50;99.90;;;;;;4377442;32;20066;-64
2022/01/20 04:33:51;;;;;;;4.82;2.85;;;-4.50;99.90;;;;;;4377979;32;20067;-64
2022/01/20 04:36:18;;;;;;;4.93;2.80;;;-4.50;99.90;;;;;;4365151;32;20464;-66
2022/01/20 04:38:45;;;;;;;4.28;2.80;;;-4.50;99.90;;;;;;4377545;32;20197;-66
2022/01/20 04:41:11;;;;;;;5.80;3.40;;;-4.50;99.90;;;;;;4365442;32;20081;-64
2022/01/20 04:43:38;;;;;;;5.50;3.30;;;-4.50;99.90;;;;;;4391422;32;20154;-64
2022/01/20 04:46:16;;;;;;;5.95;3.47;;;-4.40;99.90;;;;;;4377089;32;20182;-64
2022/01/20 04:59:38;;;;;;;5.90;3.50;;;-4.50;99.90;;;;;;4379741;32;20150;-65
2022/01/20 05:02:04;;;;;;;4.35;2.72;;;-4.50;99.90;;;;;;4391154;32;20066;-64
2022/01/20 05:04:31;;;;;;;4.40;2.92;;;-4.40;99.90;;;;;;4391122;32;20504;-65
2022/01/20 05:06:59;;;;;;;4.78;3.20;;;-4.40;99.90;;;;;;4366680;32;20074;-65
2022/01/20 05:09:26;;;;;;;4.62;3.25;;;-4.40;99.90;;;;;;4386258;32;20113;-64
2022/01/20 05:12:03;;;;;;;3.45;2.62;;;-4.40;99.90;;;;;;4389939;32;20088;-65
2022/01/20 05:14:30;;;;;;;4.90;3.05;;;-4.40;99.90;;;;;;4383868;32;20074;-64
2022/01/20 05:16:57;;;;;;;3.72;2.75;;;-4.40;99.90;;;;;;4355843;32;20074;-64
2022/01/20 05:19:26;;;;;;;4.35;2.90;;;-4.30;99.90;;;;;;4367633;32;20448;-64
2022/01/20 05:21:53;;;;;;;4.65;2.70;;;-4.30;99.90;;;;;;4367245;32;20611;-65
2022/01/20 05:24:22;;;;;;;4.62;2.90;;;-4.30;99.90;;;;;;4394111;32;20094;-65
2022/01/20 05:26:53;;;;;;;4.12;2.92;;;-4.30;99.90;;;;;;4380174;32;20146;-64
2022/01/20 05:29:21;;;;;;;3.65;2.58;;;-4.20;99.90;;;;;;4379867;32;20166;-64
2022/01/20 05:31:49;;;;;;;3.60;2.50;;;-4.40;99.90;;;;;;4379950;32;20084;-64
2022/01/20 05:34:15;;;;;;;4.20;2.53;;;-4.40;99.90;;;;;;4379671;32;20542;-63
2022/01/20 05:36:44;;;;;;;5.55;2.92;;;-4.30;99.90;;;;;;4380470;32;20065;-64
2022/01/20 05:39:10;;;;;;;4.07;2.80;;;-4.50;99.90;;;;;;4355029;32;20078;-65
2022/01/20 05:41:37;;;;;;;4.22;2.78;;;-4.30;99.90;;;;;;4367779;32;20492;-66
2022/01/20 05:44:03;;;;;;;3.92;2.70;;;-4.40;99.90;;;;;;4379606;32;20062;-63
2022/01/20 05:46:37;;;;;;;3.28;2.50;;;-4.40;99.90;;;;;;4393764;32;20508;-64
2022/01/20 05:49:08;;;;;;;4.82;3.30;;;-4.40;99.90;;;;;;4379896;32;20131;-64
2022/01/20 05:51:41;;;;;;;4.05;2.62;;;-4.50;99.90;;;;;;4368118;32;20073;-65
2022/01/20 05:54:09;;;;;;;4.93;2.70;;;-4.60;99.90;;;;;;4379653;32;20529;-65
2022/01/20 05:56:35;;;;;;;3.33;2.30;;;-4.50;99.90;;;;;;4380331;32;20488;-62
2022/01/20 05:59:03;;;;;;;3.67;2.45;;;-4.50;99.90;;;;;;4379448;32;20070;-67
2022/01/20 06:01:32;;;;;;;3.65;2.28;;;-4.60;99.90;;;;;;4379365;32;20557;-68
2022/01/20 06:03:59;;;;;;;4.22;2.45;;;-4.60;99.90;;;;;;4354754;32;20089;-67
2022/01/20 06:06:25;;;;;;;3.97;2.70;;;-4.50;99.90;;;;;;4379753;32;20093;-67
2022/01/20 06:08:52;;;;;;;5.03;2.80;;;-4.50;99.90;;;;;;4366708;32;20475;-66
2022/01/20 06:11:18;;;;;;;4.93;2.65;;;-4.50;99.90;;;;;;4379568;32;20096;-69
2022/01/20 06:13:45;;;;;;;3.30;2.40;;;-4.50;99.90;;;;;;4379213;32;20449;-66
2022/01/20 06:16:11;;;;;;;3.83;2.45;;;-4.40;99.90;;;;;;4366842;32;20530;-66
2022/01/20 06:18:38;;;;;;;5.28;2.60;;;-4.50;99.90;;;;;;4379350;32;20082;-67
2022/01/20 06:21:04;;;;;;;4.50;2.90;;;-4.40;99.90;;;;;;4393503;32;20080;-65
2022/01/20 06:23:31;;;;;;;4.80;2.70;;;-4.40;99.90;;;;;;4366680;32;20076;-68
2022/01/20 06:25:57;;;;;;;4.50;2.78;;;-4.40;99.90;;;;;;4366557;32;20092;-66
2022/01/20 06:28:24;;;;;;;4.30;2.65;;;-4.40;99.90;;;;;;4378917;32;20082;-66
2022/01/20 06:30:50;;;;;;;4.20;2.60;;;-4.40;99.90;;;;;;4392745;32;20092;-65
2022/01/20 06:33:17;;;;;;;4.05;2.75;;;-4.40;99.90;;;;;;4378899;32;20065;-66
2022/01/20 06:35:43;;;;;;;3.92;2.42;;;-4.40;99.90;;;;;;4353752;32;20492;-66
2022/01/20 06:38:11;;;;;;;4.55;2.62;;;-4.40;99.90;;;;;;4366796;32;20089;-66
2022/01/20 06:40:38;;;;;;;4.03;2.62;;;-4.30;99.90;;;;;;4379122;32;20091;-66
2022/01/20 06:43:05;;;;;;;5.87;3.17;;;-4.30;99.90;;;;;;4366329;32;20535;-66
2022/01/20 06:45:32;;;;;;;5.78;2.80;;;-4.30;99.90;;;;;;4392627;32;20174;-67
2022/01/20 06:47:58;;;;;;;4.57;2.50;;;-4.50;99.90;;;;;;4366707;32;20578;-67
2022/01/20 06:50:25;;;;;;;4.25;2.72;;;-4.50;99.90;;;;;;4393837;32;20076;-68
2022/01/20 06:52:53;;;;;;;3.47;2.30;;;-4.40;99.90;;;;;;4379001;32;20149;-68
2022/01/20 06:55:20;;;;;;;3.33;2.40;;;-4.30;99.90;;;;;;4378937;32;20074;-67
2022/01/20 06:57:47;;;;;;;4.28;2.72;;;-4.40;99.90;;;;;;4366253;32;20156;-67
2022/01/20 07:00:20;;;;;;;3.65;2.50;;;-4.40;99.90;;;;;;4378585;32;20061;-67
2022/01/20 07:02:49;;;;;;;4.32;2.72;;;-4.40;99.90;;;;;;4365931;32;20480;-66
2022/01/20 07:05:18;;;;;;;4.15;2.60;;;-4.30;99.90;;;;;;4366207;32;20074;-66
2022/01/20 07:10:24;;;;;;;4.27;2.73;;;-4.30;99.90;;;;;;3831568;37;20062;-67
2022/01/20 07:12:51;;;;;;;5.25;2.80;;;-4.40;99.90;;;;;;4390966;32;20179;-68
2022/01/20 07:15:19;;;;;;;4.95;2.95;;;-4.30;99.90;;;;;;4378108;32;20079;-66
2022/01/20 07:17:46;;;;;;;4.60;2.90;;;-4.40;99.90;;;;;;4378017;32;20162;-68
2022/01/20 07:20:14;;;;;;;4.85;2.92;;;-4.40;99.90;;;;;;4390913;32;20074;-70
2022/01/20 07:22:40;;;;;;;5.87;3.35;;;-4.40;99.90;;;;;;4378437;32;20075;-67
2022/01/20 07:25:07;;;;;;;4.37;2.53;;;-4.40;99.90;;;;;;4390907;32;20551;-67
2022/01/20 07:27:34;;;;;;;4.68;3.08;;;-4.40;99.90;;;;;;4404363;32;20100;-68
2022/01/20 07:30:00;;;;;;;5.62;2.78;;;-4.40;99.90;;;;;;4380334;32;20084;-69
2022/01/20 07:32:27;;;;;;;5.05;3.15;;;-4.30;99.90;;;;;;4374554;32;20575;-68
2022/01/20 07:34:53;;;;;;;4.55;2.75;;;-4.30;99.90;;;;;;4361615;32;20471;-66
2022/01/20 07:37:20;;;;;;;7.97;2.90;;;-4.00;99.90;;;;;;4377400;32;20606;-67
2022/01/20 07:39:46;;;;;;;4.82;3.00;;;-4.00;99.90;;;;;;4373862;32;20165;-65
2022/01/20 07:42:12;;;;;;;4.68;2.70;;;-3.70;99.90;;;;;;4372014;32;20065;-64
2022/01/20 07:44:39;;;;;;;3.95;2.30;;;-3.70;99.90;;;;;;4379947;32;20180;-64
2022/01/20 07:47:05;;;;;;;4.12;2.83;;;-3.80;99.90;;;;;;4390759;32;20074;-66
2022/01/20 07:49:32;;;;;;;3.87;2.78;;;-3.90;99.90;;;;;;4371899;32;20577;-64
2022/01/20 07:51:58;;;;;;;5.03;2.87;;;-4.00;99.90;;;;;;4372662;32;20102;-64
2022/01/20 07:54:24;;;;;;;6.35;2.85;;;-3.90;99.90;;;;;;4371684;32;20078;-64
2022/01/20 07:56:51;;;;;;;4.65;2.40;;;-3.90;99.90;;;;;;4379237;32;20538;-68
2022/01/20 07:59:18;;;;;;;5.25;2.33;;;-4.10;99.90;;;;;;4366593;32;20115;-65
2022/01/20 08:04:26;;;;;;;3.70;2.37;;;-4.10;99.90;;;;;;3819289;37;20465;-69
2022/01/20 08:06:53;;;;;;;4.40;2.72;;;-4.20;99.90;;;;;;4383792;32;20147;-74
2022/01/20 08:09:20;;;;;;;4.45;2.35;;;-4.10;99.90;;;;;;4382148;32;20072;-72
2022/01/20 08:11:47;;;;;;;4.62;2.55;;;-4.10;99.90;;;;;;4362287;32;20129;-73
2022/01/20 08:14:14;;;;;;;6.30;3.17;;;-4.20;99.90;;;;;;4376245;32;20110;-71
2022/01/20 08:16:40;;;;;;;5.40;3.17;;;-4.10;99.90;;;;;;4393997;32;20501;-73
2022/01/20 08:19:07;;;;;;;5.00;2.97;;;-4.20;99.90;;;;;;4380610;32;20117;-67
2022/01/20 08:21:33;;;;;;;4.78;2.75;;;-4.20;99.90;;;;;;4364872;32;20079;-69
2022/01/20 08:24:00;;;;;;;4.65;2.37;;;-4.10;99.90;;;;;;4385506;32;20077;-70
2022/01/20 08:26:26;;;;;;;3.62;2.33;;;-4.20;99.90;;;;;;4371336;32;20076;-66
2022/01/20 08:28:53;;;;;;;4.85;3.10;;;-4.20;99.90;;;;;;4368742;32;20154;-69
2022/01/20 08:31:20;;;;;;;4.15;2.60;;;-3.90;99.90;;;;;;4399088;32;20086;-68
2022/01/20 08:33:47;;;;;;;4.43;2.62;;;-3.80;99.90;;;;;;4381974;32;20082;-64
2022/01/20 08:36:13;;;;;;;5.32;2.97;;;-3.70;99.90;;;;;;4351021;32;20142;-64
2022/01/20 08:38:39;;;;;;;6.03;2.92;;;-3.90;99.90;;;;;;4378453;32;20077;-66
2022/01/20 08:41:06;;;;;;;4.85;2.80;;;-3.70;99.90;;;;;;4381482;32;20070;-66
2022/01/20 08:43:38;;;;;;;4.57;2.72;;;-3.60;99.90;;;;;;4368230;32;20077;-67
2022/01/20 08:46:07;;;;;;;5.87;2.08;;;-3.70;99.90;;;;;;4367307;32;20090;-63
2022/01/20 08:48:35;;;;;;;4.47;2.78;;;-4.00;99.90;;;;;;4371277;32;20089;-65
2022/01/20 08:51:04;;;;;;;4.00;2.72;;;-3.80;99.90;;;;;;4351427;32;20093;-69
2022/01/20 08:53:31;;;;;;;3.97;2.30;;;-4.20;99.90;;;;;;4377832;32;20066;-69
2022/01/20 08:56:01;;;;;;;4.70;2.47;;;-4.20;99.90;;;;;;4374131;32;20098;-71
2022/01/20 08:58:27;;;;;;;4.30;2.87;;;-4.10;99.90;;;;;;4359097;32;20497;-70
2022/01/20 09:00:55;;;;;;;5.80;2.83;;;-4.00;99.90;;;;;;4354865;32;20078;-76
2022/01/20 09:03:23;;;;;;;3.92;2.65;;;-4.00;99.90;;;;;;4371122;32;20162;-76
2022/01/20 09:05:53;;;;;;;3.55;2.00;;;-4.10;99.90;;;;;;4368789;32;20189;-71
2022/01/20 09:08:19;;;;;;;4.40;2.37;;;-4.00;99.90;;;;;;4366459;32;20160;-73
2022/01/20 09:10:54;;;;;;;4.18;2.62;;;-4.00;99.90;;;;;;4351733;32;20121;-73
2022/01/20 09:16:06;;;;;;;4.68;2.47;;;-3.80;99.90;;;;;;4368639;32;20105;-73
2022/01/20 09:18:33;;;;;;;4.70;2.67;;;-4.10;99.90;;;;;;4348065;32;20192;-74
2022/01/20 09:21:00;;;;;;;4.68;2.70;;;-3.80;99.90;;;;;;4348509;32;20118;-77
2022/01/20 09:23:26;;;;;;;4.22;2.58;;;-4.20;99.90;;;;;;4359026;32;20154;-77
2022/01/20 09:25:53;;;;;;;7.07;2.60;;;-4.10;99.90;;;;;;4356361;32;20509;-78
2022/01/20 09:28:19;;;;;;;4.00;2.45;;;-4.00;99.90;;;;;;4357798;32;20097;-75
2022/01/20 09:30:46;;;;;;;5.25;2.75;;;-3.80;99.90;;;;;;4365707;32;20165;-76
2022/01/20 09:33:24;;;;;;;4.70;2.53;;;-3.80;99.90;;;;;;4332591;32;20456;-77
2022/01/20 09:35:51;;;;;;;4.20;2.60;;;-3.90;99.90;;;;;;4346104;32;20062;-77
2022/01/20 09:38:18;;;;;;;5.35;2.75;;;-3.90;99.90;;;;;;4351752;32;20116;-78
2022/01/20 09:40:44;;;;;;;4.53;2.80;;;-3.70;99.90;;;;;;4344665;32;20086;-77
2022/01/20 09:43:14;;;;;;;4.57;2.90;;;-3.80;99.90;;;;;;4363628;32;20067;-76
2022/01/20 09:45:42;;;;;;;4.30;2.90;;;-3.90;99.90;;;;;;4359192;32;20178;-76
2022/01/20 09:48:10;;;;;;;4.70;3.10;;;-4.10;99.90;;;;;;4359775;32;20082;-79
2022/01/20 09:50:38;;;;;;;4.75;2.80;;;-4.30;99.90;;;;;;4366125;32;20587;-79
2022/01/20 09:53:05;;;;;;;4.60;2.92;;;-4.30;99.90;;;;;;4345080;32;20077;-80
2022/01/20 09:55:32;;;;;;;4.72;3.47;;;-4.30;99.90;;;;;;4357087;32;20165;-77
2022/01/20 09:57:59;;;;;;;4.50;3.03;;;-4.30;99.90;;;;;;4355261;32;20129;-74
2022/01/20 10:00:25;;;;;;;6.50;3.25;;;-4.20;99.90;;;;;;4354677;32;20074;-80
2022/01/20 10:03:10;;;;;;;6.45;3.30;;;-4.30;99.90;;;;;;4368470;32;20179;-79
2022/01/20 10:05:41;;;;;;;5.07;3.20;;;-4.20;99.90;;;;;;4367658;32;20099;-79
2022/01/20 10:08:26;;;;;;;4.68;2.80;;;-4.30;99.90;;;;;;4343651;32;20582;-72
2022/01/20 10:11:03;;;;;;;9.18;3.47;;;-4.30;99.90;;;;;;4351292;32;20551;-73
2022/01/20 10:13:37;;;;;;;5.85;3.53;;;-4.20;99.90;;;;;;4366966;32;20094;-73
2022/01/20 10:16:16;;;;;;;5.95;3.80;;;-4.50;99.90;;;;;;4359717;32;20150;-74
2022/01/20 10:18:59;;;;;;;5.53;3.30;;;-4.70;99.90;;;;;;4353121;32;20077;-73
2022/01/20 10:21:31;;;;;;;5.12;3.30;;;-4.80;99.90;;;;;;4352777;32;20072;-77
2022/01/20 10:24:26;;;;;;;6.82;3.40;;;-4.90;99.90;;;;;;4348133;32;20147;-76
2022/01/20 10:26:53;;;;;;;6.87;3.62;;;-4.80;99.90;;;;;;4346478;32;20086;-76
2022/01/20 10:29:19;;;;;;;5.07;3.10;;;-4.80;99.90;;;;;;4358566;32;20094;-77
2022/01/20 10:31:52;;;;;;;4.25;3.08;;;-5.00;99.90;;;;;;4349702;32;20074;-76
2022/01/20 10:34:30;;;;;;;4.85;3.15;;;-5.00;99.90;;;;;;4365480;32;20094;-79
2022/01/20 10:37:13;;;;;;;6.03;3.50;;;-4.80;99.90;;;;;;4360808;32;20154;-76
2022/01/20 10:39:47;;;;;;;4.30;2.85;;;-5.00;99.90;;;;;;4325210;32;20078;-75
2022/01/20 10:42:20;;;;;;;5.43;3.10;;;-5.10;99.90;;;;;;4350648;32;20071;-75
2022/01/20 10:44:55;;;;;;;4.72;3.35;;;-5.10;99.90;;;;;;4360522;32;20083;-77
2022/01/20 10:47:30;;;;;;;5.70;2.87;;;-5.30;99.90;;;;;;4336067;32;20078;-75
2022/01/20 10:50:13;;;;;;;5.57;3.75;;;-5.20;99.90;;;;;;4342318;32;20074;-75
2022/01/20 10:52:44;;;;;;;4.75;2.87;;;-5.30;99.90;;;;;;4334440;32;20085;-75
2022/01/20 10:55:26;;;;;;;5.10;3.00;;;-5.30;99.90;;;;;;4354243;32;20444;-74
2022/01/20 10:57:54;;;;;;;5.03;3.00;;;-5.30;99.90;;;;;;4347880;32;20070;-75
2022/01/20 11:00:25;;;;;;;4.93;3.42;;;-5.10;99.90;;;;;;4352398;32;20445;-74
2022/01/20 11:02:57;;;;;;;5.20;3.05;;;-5.10;99.90;;;;;;4327404;32;20094;-74
2022/01/20 11:05:28;;;;;;;5.43;3.35;;;-5.00;99.90;;;;;;4352818;32;20282;-75
2022/01/20 11:07:55;;;;;;;5.75;3.60;;;-5.00;99.90;;;;;;4349220;32;20493;-74
2022/01/20 11:10:21;;;;;;;5.35;3.47;;;-5.00;99.90;;;;;;4346756;32;20167;-73
2022/01/20 11:12:48;;;;;;;5.37;3.20;;;-5.00;99.90;;;;;;4345524;33;20111;-75
2022/01/20 11:15:18;;;;;;;4.70;3.28;;;-4.80;99.90;;;;;;4332899;33;20179;-74
2022/01/20 11:17:55;;;;;;;4.53;3.00;;;-4.80;99.90;;;;;;4358090;32;20178;-74
2022/01/20 11:20:28;;;;;;;5.82;3.08;;;-4.80;99.90;;;;;;4357826;32;20132;-75
2022/01/20 11:23:09;;;;;;;5.53;3.22;;;-4.80;99.90;;;;;;4332547;32;20536;-71
2022/01/20 11:25:39;;;;;;;6.25;3.17;;;-4.80;99.90;;;;;;4340776;32;20082;-72
2022/01/20 11:28:08;;;;;;;5.72;3.87;;;-4.70;99.90;;;;;;4343702;32;20110;-76
2022/01/20 11:30:55;;;;;;;5.32;3.15;;;-4.70;99.90;;;;;;4349101;32;20522;-73
2022/01/20 11:33:42;;;;;;;5.68;3.50;;;-4.80;99.90;;;;;;4336683;32;20192;-73
2022/01/20 11:36:29;;;;;;;5.97;3.40;;;-4.80;99.90;;;;;;4352407;32;20098;-73
2022/01/20 11:39:06;;;;;;;5.35;3.42;;;-4.70;99.90;;;;;;4348043;32;20075;-71
2022/01/20 11:41:49;;;;;;;4.75;3.37;;;-4.70;99.90;;;;;;4345392;32;20071;-71
2022/01/20 11:44:29;;;;;;;4.95;3.00;;;-4.60;99.90;;;;;;4350657;32;20600;-71
2022/01/20 11:47:07;;;;;;;6.32;3.58;;;-4.60;99.90;;;;;;4341526;32;20073;-72
2022/01/20 11:49:39;;;;;;;4.85;3.33;;;-4.60;99.90;;;;;;4351950;32;20102;-72
2022/01/20 11:52:07;;;;;;;3.75;2.80;;;-4.50;99.90;;;;;;4346407;32;20572;-70
2022/01/20 11:54:42;;;;;;;5.55;3.10;;;-4.60;99.90;;;;;;4339178;32;20151;-70
2022/01/20 11:57:27;;;;;;;4.05;2.90;;;-4.80;99.90;;;;;;4340168;32;20078;-71
2022/01/20 11:59:59;;;;;;;3.40;2.37;;;-4.90;99.90;;;;;;4349641;32;20086;-72
2022/01/20 12:02:38;;;;;;;4.28;2.58;;;-5.00;99.90;;;;;;4348250;32;20183;-72
2022/01/20 12:05:30;;;;;;;4.22;2.60;;;-4.80;99.90;;;;;;4364359;32;20082;-71
2022/01/20 12:08:12;;;;;;;4.40;3.03;;;-4.70;99.90;;;;;;4338160;32;20465;-71
2022/01/20 12:10:40;;;;;;;4.68;3.30;;;-4.80;99.90;;;;;;4348999;32;20085;-71
2022/01/20 12:29:10;;;;;;;6.03;3.83;;;-4.80;99.90;;;;;;3819825;37;20898;-72
2022/01/20 12:31:53;;;;;;;5.85;3.80;;;-4.80;99.90;;;;;;4362367;32;20088;-71
2022/01/20 12:34:20;;;;;;;6.43;3.83;;;-5.00;99.90;;;;;;4362163;32;20185;-73
2022/01/20 12:36:58;;;;;;;6.18;3.53;;;-5.00;99.90;;;;;;4361596;32;20098;-70
2022/01/20 12:39:35;;;;;;;6.50;3.33;;;-5.10;99.90;;;;;;4358006;32;20070;-68
2022/01/20 12:42:06;;;;;;;4.60;2.90;;;-5.20;99.90;;;;;;4366797;32;20635;-68
2022/01/20 12:44:40;;;;;;;4.43;3.20;;;-5.30;99.90;;;;;;4378978;32;20577;-72
2022/01/20 12:47:08;;;;;;;8.45;3.20;;;-5.30;99.90;;;;;;4386886;32;20090;-74
2022/01/20 12:49:35;;;;;;;5.72;2.87;;;-5.30;99.90;;;;;;4363483;32;20569;-74
2022/01/20 12:52:06;;;;;;;6.03;3.47;;;-5.20;99.90;;;;;;4359417;32;20144;-75
2022/01/20 12:54:34;;;;;;;6.65;3.53;;;-5.30;99.90;;;;;;4347691;32;20062;-75
2022/01/20 12:57:06;;;;;;;4.80;2.97;;;-5.40;99.90;;;;;;4349551;32;20063;-76
2022/01/20 12:59:40;;;;;;;4.62;3.15;;;-5.40;99.90;;;;;;4376259;32;20093;-70
2022/01/20 13:02:23;;;;;;;6.40;3.72;;;-5.40;99.90;;;;;;4375228;32;20118;-72
2022/01/20 13:04:57;;;;;;;5.50;3.28;;;-5.50;99.90;;;;;;4371886;32;20073;-73
2022/01/20 13:07:24;;;;;;;4.82;3.00;;;-5.60;99.90;;;;;;4378052;32;20094;-73
2022/01/20 13:10:04;;;;;;;5.30;3.12;;;-5.50;99.90;;;;;;4373584;32;20149;-74
2022/01/20 13:12:39;;;;;;;5.57;3.22;;;-5.60;99.90;;;;;;4383229;32;20178;-72
2022/01/20 13:15:27;;;;;;;5.60;3.28;;;-5.60;99.90;;;;;;4365254;32;20109;-76
2022/01/20 13:18:12;;;;;;;6.75;3.72;;;-5.50;99.90;;;;;;4366308;32;20082;-75
2022/01/20 13:20:42;;;;;;;5.62;3.50;;;-5.50;99.90;;;;;;4361672;32;20248;-78
2022/01/20 13:25:41;;;;;;;5.65;3.67;;;-5.50;99.90;;;;;;4360810;32;20210;-72
2022/01/20 13:28:11;;;;;;;5.57;3.75;;;-5.50;99.90;;;;;;4369044;32;20055;-74
2022/01/20 13:30:47;;;;;;;5.60;3.03;;;-5.70;99.90;;;;;;4362258;32;20107;-76
2022/01/20 13:33:24;;;;;;;6.07;3.62;;;-5.60;99.90;;;;;;4355169;32;20077;-74
2022/01/20 13:36:01;;;;;;;5.07;3.78;;;-5.50;99.90;;;;;;4349828;32;20105;-72
2022/01/20 13:38:32;;;;;;;5.72;3.42;;;-5.50;99.90;;;;;;4360391;32;20066;-75
2022/01/20 13:41:10;;;;;;;6.40;4.05;;;-5.60;99.90;;;;;;4346197;32;20167;-74
2022/01/20 13:47:07;;;;;;;5.62;3.58;;;-5.60;99.90;;;;;;4344693;32;20062;-74
2022/01/20 13:49:33;;;;;;;6.05;3.75;;;-5.50;99.90;;;;;;4324407;32;20149;-72
2022/01/20 13:52:10;;;;;;;6.35;3.40;;;-5.40;99.90;;;;;;4339501;32;20168;-79
2022/01/20 13:54:40;;;;;;;6.80;3.28;;;-5.50;99.90;;;;;;4347448;32;20095;-73
2022/01/20 13:57:06;;;;;;;5.93;3.90;;;-5.50;99.90;;;;;;4336327;32;20095;-73
2022/01/20 13:59:33;;;;;;;7.22;3.67;;;-5.60;99.90;;;;;;4351244;32;20096;-74
2022/01/20 14:02:00;;;;;;;4.72;2.90;;;-5.60;99.90;;;;;;4345690;32;20156;-76
2022/01/20 14:04:27;;;;;;;6.03;3.67;;;-5.60;99.90;;;;;;4338523;32;20081;-72
2022/01/20 14:06:53;;;;;;;7.40;3.55;;;-5.50;99.90;;;;;;4360380;32;20087;-74
2022/01/20 14:09:21;;;;;;;5.90;3.60;;;-5.50;99.90;;;;;;4337225;32;20095;-71
2022/01/20 14:11:47;;;;;;;5.85;3.70;;;-5.50;99.90;;;;;;4345721;32;20118;-74
2022/01/20 14:14:15;;;;;;;5.32;3.65;;;-5.60;99.90;;;;;;4334920;32;20070;-76
2022/01/20 14:16:41;;;;;;;4.78;3.42;;;-5.60;99.90;;;;;;4348726;32;20510;-71
2022/01/20 14:19:10;;;;;;;6.28;3.58;;;-5.50;99.90;;;;;;4363239;32;20492;-72
2022/01/20 14:21:38;;;;;;;5.60;3.55;;;-5.60;99.90;;;;;;4340200;32;20066;-72
2022/01/20 14:24:05;;;;;;;5.18;2.90;;;-5.60;99.90;;;;;;4348208;32;20102;-71
2022/01/20 14:26:33;;;;;;;5.53;3.40;;;-5.50;99.90;;;;;;4349574;32;20066;-75
2022/01/20 14:28:59;;;;;;;4.50;3.15;;;-5.50;99.90;;;;;;4332207;33;20078;-69